Time;durP1;ratioP1;P1;durP2;ratioP2;P2;SDS_P1;SDS_P2;PMS_P1;PMS_P2;Temp;Humidity;BMP_temperature;BMP_pressure;BME280_temperature;BME280_humidity;BME280_pressure;Samples;Min_cycle;Max_cycle;Signal;HPM_P1;HPM_P2
2024/01/05 00:00:44;;;;;;;20.37;4.47;;;9.10;99.90;;;;;;5010283;28;39287;-79
2024/01/05 00:03:10;;;;;;;27.27;5.27;;;9.10;99.90;;;;;;4993347;28;37624;-79
2024/01/05 00:05:39;;;;;;;30.20;5.33;;;9.00;99.90;;;;;;4993258;28;37690;-79
2024/01/05 00:08:05;;;;;;;23.43;4.27;;;9.00;99.90;;;;;;4986083;28;36154;-79
2024/01/05 00:10:32;;;;;;;24.20;4.70;;;9.00;99.90;;;;;;4993841;28;37672;-78
2024/01/05 00:12:58;;;;;;;31.30;6.50;;;9.10;99.90;;;;;;4997161;28;39972;-79
2024/01/05 00:15:24;;;;;;;22.67;4.73;;;9.10;99.90;;;;;;4989302;28;37721;-78
2024/01/05 00:17:50;;;;;;;36.07;7.13;;;9.10;99.90;;;;;;4991586;28;36527;-79
2024/01/05 00:20:16;;;;;;;32.87;4.97;;;9.10;99.90;;;;;;4994274;28;37805;-79
2024/01/05 00:22:43;;;;;;;26.83;5.20;;;9.10;99.90;;;;;;4986238;28;38709;-79
2024/01/05 00:25:09;;;;;;;22.27;4.63;;;9.20;99.90;;;;;;5011314;28;38703;-78
2024/01/05 00:27:35;;;;;;;24.43;4.80;;;9.20;99.90;;;;;;4992985;28;38113;-79
2024/01/05 00:30:01;;;;;;;31.20;6.10;;;9.20;99.90;;;;;;4991721;28;38897;-79
2024/01/05 00:32:27;;;;;;;25.50;5.27;;;9.20;99.90;;;;;;4985445;28;37960;-79
2024/01/05 00:34:53;;;;;;;25.23;5.27;;;9.10;99.90;;;;;;4991553;28;37422;-78
2024/01/05 00:37:19;;;;;;;22.13;4.77;;;9.20;99.90;;;;;;4988950;28;37029;-78
2024/01/05 00:39:46;;;;;;;25.03;5.23;;;9.20;99.90;;;;;;4989533;28;38077;-79
2024/01/05 00:42:12;;;;;;;20.47;4.50;;;9.20;99.90;;;;;;5003209;28;38986;-79
2024/01/05 00:44:40;;;;;;;24.87;5.57;;;9.20;99.90;;;;;;4992147;28;37439;-79
2024/01/05 00:47:06;;;;;;;20.47;4.30;;;9.20;99.90;;;;;;4991792;28;36220;-79
2024/01/05 00:49:33;;;;;;;23.00;4.17;;;9.20;99.90;;;;;;4991044;28;38706;-78
2024/01/05 00:51:59;;;;;;;20.30;3.40;;;9.30;99.90;;;;;;5004744;28;38777;-79
2024/01/05 00:54:25;;;;;;;20.57;4.17;;;9.30;99.90;;;;;;4992226;28;37380;-79
2024/01/05 00:56:51;;;;;;;20.43;4.43;;;9.30;99.90;;;;;;4988873;28;36422;-78
2024/01/05 00:59:23;;;;;;;17.33;3.50;;;9.30;99.90;;;;;;5001344;28;38911;-79
2024/01/05 01:01:50;;;;;;;18.42;3.90;;;9.40;99.90;;;;;;4984377;28;37677;-78
2024/01/05 01:04:17;;;;;;;21.63;3.67;;;9.40;99.90;;;;;;4990083;28;37465;-78
2024/01/05 01:06:43;;;;;;;19.33;5.30;;;9.40;99.90;;;;;;4990274;28;37316;-78
2024/01/05 01:09:10;;;;;;;22.03;3.97;;;9.40;99.90;;;;;;5010282;28;39639;-78
2024/01/05 01:11:36;;;;;;;14.70;3.47;;;9.40;99.90;;;;;;4990257;28;38153;-79
2024/01/05 01:14:02;;;;;;;18.93;3.60;;;9.50;99.90;;;;;;4993075;28;38828;-79
2024/01/05 01:16:28;;;;;;;27.40;3.77;;;9.50;99.90;;;;;;4990643;28;38025;-79
2024/01/05 01:18:54;;;;;;;20.93;3.77;;;9.50;99.90;;;;;;4993876;28;37630;-79
2024/01/05 01:21:20;;;;;;;17.40;3.50;;;9.60;99.90;;;;;;4990155;28;37800;-78
2024/01/05 01:23:46;;;;;;;20.60;3.87;;;9.60;99.90;;;;;;4993190;28;37072;-79
2024/01/05 01:26:12;;;;;;;20.77;3.77;;;9.60;99.90;;;;;;4991248;28;37048;-79
2024/01/05 01:28:38;;;;;;;20.43;4.13;;;9.60;99.90;;;;;;4992720;28;38165;-79
2024/01/05 01:31:04;;;;;;;16.90;3.70;;;9.60;99.90;;;;;;4989281;28;37901;-79
2024/01/05 01:33:31;;;;;;;18.40;3.00;;;9.70;99.90;;;;;;4993195;28;38547;-78
2024/01/05 01:35:57;;;;;;;11.50;3.23;;;9.70;99.90;;;;;;4989734;28;35985;-79
2024/01/05 01:38:23;;;;;;;15.10;3.40;;;9.70;99.90;;;;;;4989035;28;37480;-80
2024/01/05 01:40:49;;;;;;;14.93;2.60;;;9.70;99.90;;;;;;5012385;28;38981;-79
2024/01/05 01:43:21;;;;;;;14.80;2.93;;;9.70;99.90;;;;;;4986268;28;38779;-78
2024/01/05 01:45:47;;;;;;;12.93;2.50;;;9.80;99.90;;;;;;4995318;28;36656;-79
2024/01/05 01:48:16;;;;;;;18.87;3.47;;;9.80;99.90;;;;;;4994925;28;37776;-79
2024/01/05 01:50:42;;;;;;;9.17;2.80;;;9.70;99.90;;;;;;4994762;28;38777;-79
2024/01/05 01:53:09;;;;;;;18.17;4.37;;;9.70;99.90;;;;;;4993660;28;37623;-77
2024/01/05 01:55:36;;;;;;;15.07;2.73;;;9.70;99.90;;;;;;5010508;28;36917;-79
2024/01/05 01:58:03;;;;;;;10.93;3.10;;;9.70;99.90;;;;;;5007056;28;38427;-80
2024/01/05 02:03:08;;;;;;;15.97;2.63;;;9.60;99.90;;;;;;5367434;23;20066;-75
2024/01/05 02:05:34;;;;;;;9.30;2.53;;;9.70;99.90;;;;;;4956385;28;38028;-76
2024/01/05 02:08:00;;;;;;;14.20;2.43;;;9.70;99.90;;;;;;4968315;28;38954;-76
2024/01/05 02:10:27;;;;;;;15.13;3.27;;;9.70;99.90;;;;;;4981393;28;42170;-75
2024/01/05 02:12:53;;;;;;;11.93;2.40;;;9.70;99.90;;;;;;4970869;28;38793;-76
2024/01/05 02:15:19;;;;;;;18.07;3.30;;;9.70;99.90;;;;;;4957698;28;37320;-75
2024/01/05 02:17:45;;;;;;;13.20;2.87;;;9.80;99.90;;;;;;4966934;28;40004;-76
2024/01/05 02:20:11;;;;;;;14.77;2.47;;;9.80;99.90;;;;;;4967504;28;40014;-76
2024/01/05 02:22:41;;;;;;;18.13;3.00;;;9.80;99.90;;;;;;4962440;28;40356;-76
2024/01/05 02:25:07;;;;;;;12.30;2.70;;;9.80;99.90;;;;;;4967197;28;37136;-75
2024/01/05 02:27:33;;;;;;;13.87;3.20;;;9.80;99.90;;;;;;4971590;28;39334;-75
2024/01/05 02:29:59;;;;;;;16.20;2.63;;;9.80;99.90;;;;;;4960939;28;39346;-75
2024/01/05 02:32:26;;;;;;;15.80;2.47;;;9.80;99.90;;;;;;4963046;28;39091;-75
2024/01/05 02:34:52;;;;;;;10.57;2.33;;;9.90;99.90;;;;;;4966935;28;38093;-76
2024/01/05 02:37:18;;;;;;;14.37;3.20;;;9.90;99.90;;;;;;4958642;28;38684;-75
2024/01/05 02:39:44;;;;;;;15.13;2.43;;;9.90;99.90;;;;;;4959903;28;39673;-75
2024/01/05 02:42:10;;;;;;;17.17;2.47;;;9.80;99.90;;;;;;4961859;28;39315;-75
2024/01/05 02:44:37;;;;;;;11.10;2.13;;;9.80;99.90;;;;;;4962501;28;37051;-75
2024/01/05 02:47:03;;;;;;;12.70;3.20;;;9.80;99.90;;;;;;4961489;28;38860;-75
2024/01/05 02:49:29;;;;;;;15.57;2.70;;;9.90;99.90;;;;;;4976112;28;39848;-75
2024/01/05 02:51:55;;;;;;;11.80;2.50;;;9.90;99.90;;;;;;4966138;28;39051;-75
2024/01/05 02:54:21;;;;;;;15.97;2.60;;;9.90;99.90;;;;;;4966590;28;37591;-75
2024/01/05 02:56:47;;;;;;;14.93;2.70;;;9.90;99.90;;;;;;4964870;28;39459;-75
2024/01/05 02:59:14;;;;;;;11.70;2.27;;;9.90;99.90;;;;;;4962062;28;38611;-75
2024/01/05 03:01:40;;;;;;;15.37;2.80;;;9.90;99.90;;;;;;4969238;28;39218;-75
2024/01/05 03:04:07;;;;;;;18.60;3.33;;;9.90;99.90;;;;;;4964436;28;38148;-75
2024/01/05 03:06:33;;;;;;;10.37;2.10;;;9.90;99.90;;;;;;4966809;28;38969;-75
2024/01/05 03:08:59;;;;;;;12.30;2.40;;;9.90;99.90;;;;;;4959687;28;37585;-75
2024/01/05 03:11:26;;;;;;;17.33;2.10;;;9.90;99.90;;;;;;4960539;28;38183;-75
2024/01/05 03:13:52;;;;;;;12.20;1.87;;;9.80;99.90;;;;;;4966146;28;37568;-75
2024/01/05 03:16:18;;;;;;;13.23;2.10;;;9.80;99.90;;;;;;4968498;28;39547;-75
2024/01/05 03:18:44;;;;;;;12.00;1.97;;;9.70;99.90;;;;;;4968198;28;39179;-75
2024/01/05 03:21:11;;;;;;;11.30;2.70;;;9.70;99.90;;;;;;4981487;28;39271;-75
2024/01/05 03:23:37;;;;;;;14.93;2.33;;;9.70;99.90;;;;;;4964247;28;37844;-75
2024/01/05 03:26:07;;;;;;;12.17;2.40;;;9.60;99.90;;;;;;4958231;28;39116;-75
2024/01/05 03:28:34;;;;;;;12.10;2.13;;;9.60;99.90;;;;;;4965999;28;39685;-75
2024/01/05 03:31:00;;;;;;;15.93;2.73;;;9.60;99.90;;;;;;4963574;28;39539;-75
2024/01/05 03:33:26;;;;;;;13.00;1.80;;;9.60;99.90;;;;;;4962324;28;37640;-75
2024/01/05 03:35:52;;;;;;;14.60;3.07;;;9.60;99.90;;;;;;4966347;28;39883;-75
2024/01/05 03:38:18;;;;;;;11.73;2.47;;;9.60;99.90;;;;;;4960519;28;39582;-75
2024/01/05 03:40:45;;;;;;;14.63;2.27;;;9.60;99.90;;;;;;4967405;28;39419;-74
2024/01/05 03:43:11;;;;;;;7.63;2.17;;;9.60;99.90;;;;;;4966378;28;38897;-75
2024/01/05 03:45:37;;;;;;;11.47;2.17;;;9.70;99.90;;;;;;4965965;28;39697;-75
2024/01/05 03:48:04;;;;;;;11.60;2.50;;;9.70;99.90;;;;;;4966431;28;40218;-74
2024/01/05 03:50:30;;;;;;;11.17;1.83;;;9.60;99.90;;;;;;4970389;28;38793;-75
2024/01/05 03:52:56;;;;;;;6.07;2.07;;;9.70;99.90;;;;;;4972008;28;38900;-74
2024/01/05 03:55:22;;;;;;;10.03;2.50;;;9.70;99.90;;;;;;4967314;28;39132;-75
2024/01/05 03:57:48;;;;;;;9.40;2.47;;;9.80;99.90;;;;;;4966269;28;38994;-74
2024/01/05 04:00:15;;;;;;;14.03;2.00;;;9.80;99.90;;;;;;4965726;28;40038;-75
2024/01/05 04:02:41;;;;;;;11.97;2.10;;;9.80;99.90;;;;;;4962276;28;36832;-75
2024/01/05 04:05:08;;;;;;;10.97;2.33;;;9.80;99.90;;;;;;4966644;28;38684;-75
2024/01/05 04:07:35;;;;;;;8.43;1.97;;;9.80;99.90;;;;;;4966420;28;39757;-75
2024/01/05 04:10:01;;;;;;;12.20;1.90;;;9.80;99.90;;;;;;4961171;28;38816;-75
2024/01/05 04:12:27;;;;;;;7.53;1.40;;;9.90;99.90;;;;;;4964134;28;38451;-74
2024/01/05 04:14:53;;;;;;;9.60;1.30;;;9.90;99.90;;;;;;4981804;28;39051;-75
2024/01/05 04:17:19;;;;;;;11.10;1.47;;;9.90;99.90;;;;;;4960848;28;38739;-75
2024/01/05 04:19:45;;;;;;;8.97;1.67;;;10.00;99.90;;;;;;4982334;28;37665;-75
2024/01/05 04:22:12;;;;;;;8.57;2.00;;;10.00;99.90;;;;;;4965139;28;38016;-75
2024/01/05 04:24:38;;;;;;;6.43;1.40;;;9.90;99.90;;;;;;4964209;28;40474;-75
2024/01/05 04:27:04;;;;;;;7.90;1.63;;;9.90;99.90;;;;;;4959764;28;39365;-74
2024/01/05 04:29:30;;;;;;;13.23;2.20;;;9.90;99.90;;;;;;4963306;28;40209;-75
2024/01/05 04:31:56;;;;;;;8.30;1.50;;;9.80;99.90;;;;;;4963812;28;37343;-74
2024/01/05 04:34:22;;;;;;;6.83;1.40;;;9.80;99.90;;;;;;4963619;28;38874;-75
2024/01/05 04:36:48;;;;;;;8.83;1.97;;;9.90;99.90;;;;;;4970574;28;40477;-75
2024/01/05 04:39:15;;;;;;;8.60;1.43;;;9.90;99.90;;;;;;4965102;28;39125;-75
2024/01/05 04:41:43;;;;;;;6.93;1.10;;;9.80;99.90;;;;;;4967118;28;38213;-75
2024/01/05 04:44:09;;;;;;;7.63;1.93;;;9.90;99.90;;;;;;4963724;28;40482;-75
2024/01/05 04:46:35;;;;;;;8.70;2.13;;;9.90;99.90;;;;;;4964542;28;39573;-75
2024/01/05 04:49:01;;;;;;;8.70;2.10;;;9.80;99.90;;;;;;4966541;28;39964;-74
2024/01/05 04:51:28;;;;;;;11.40;1.87;;;9.70;99.90;;;;;;4965960;28;37880;-75
2024/01/05 04:53:54;;;;;;;6.63;1.47;;;9.60;99.90;;;;;;4965995;28;39548;-75
2024/01/05 04:56:20;;;;;;;3.90;1.00;;;9.50;99.90;;;;;;4964734;28;39218;-75
2024/01/05 04:58:46;;;;;;;3.60;0.60;;;9.20;99.90;;;;;;4969101;28;39971;-74
2024/01/05 05:01:12;;;;;;;1.23;0.43;;;8.90;99.90;;;;;;4964150;28;38612;-75
2024/01/05 05:03:38;;;;;;;1.90;0.30;;;8.80;99.90;;;;;;4962648;28;39480;-75
2024/01/05 05:06:05;;;;;;;2.80;0.40;;;8.80;99.90;;;;;;4963948;28;39068;-75
2024/01/05 05:08:32;;;;;;;2.63;0.40;;;8.80;99.90;;;;;;4967012;28;20051;-74
2024/01/05 05:10:59;;;;;;;2.10;0.50;;;8.80;99.90;;;;;;4970130;28;37429;-74
2024/01/05 05:13:25;;;;;;;2.93;0.40;;;8.90;99.90;;;;;;4966201;28;37695;-75
2024/01/05 05:15:51;;;;;;;3.33;0.40;;;8.90;99.90;;;;;;4966201;28;40295;-74
2024/01/05 05:18:17;;;;;;;4.60;0.50;;;8.90;99.90;;;;;;4968963;28;38204;-75
2024/01/05 05:20:43;;;;;;;1.13;0.40;;;9.00;99.90;;;;;;4981189;28;38688;-74
2024/01/05 05:23:10;;;;;;;3.60;0.43;;;9.00;99.90;;;;;;4963556;28;37661;-75
2024/01/05 05:25:36;;;;;;;1.00;0.20;;;8.90;99.90;;;;;;4981196;28;40302;-74
2024/01/05 05:28:02;;;;;;;2.43;0.30;;;8.90;99.90;;;;;;4965706;28;38743;-75
2024/01/05 05:30:28;;;;;;;2.17;0.40;;;8.90;99.90;;;;;;4979545;28;37610;-74
2024/01/05 05:32:54;;;;;;;0.67;0.20;;;8.80;99.90;;;;;;4971656;28;38831;-75
2024/01/05 05:35:20;;;;;;;2.63;0.50;;;8.90;99.90;;;;;;4965548;28;39350;-74
2024/01/05 05:37:46;;;;;;;2.87;0.40;;;8.80;99.90;;;;;;4988962;28;38299;-74
2024/01/05 05:40:12;;;;;;;1.53;0.40;;;8.80;99.90;;;;;;4967272;28;38291;-75
2024/01/05 05:42:39;;;;;;;1.60;0.50;;;8.90;99.90;;;;;;4969261;28;37501;-75
2024/01/05 05:45:05;;;;;;;1.77;0.40;;;8.90;99.90;;;;;;4969249;28;40353;-75
2024/01/05 05:47:31;;;;;;;0.40;0.27;;;8.90;99.90;;;;;;5005905;28;39202;-74
2024/01/05 05:49:57;;;;;;;1.93;0.83;;;8.80;99.90;;;;;;4985502;28;37880;-75
2024/01/05 05:52:23;;;;;;;2.03;0.40;;;8.80;99.90;;;;;;4985129;28;39543;-75
2024/01/05 05:54:49;;;;;;;2.23;0.33;;;8.80;99.90;;;;;;4984156;28;37639;-75
2024/01/05 05:57:16;;;;;;;1.37;0.27;;;8.70;99.90;;;;;;4999480;28;38793;-75
2024/01/05 05:59:42;;;;;;;1.63;0.40;;;8.70;99.90;;;;;;4988274;28;38659;-75
2024/01/05 06:02:08;;;;;;;1.47;0.40;;;8.60;99.90;;;;;;4978824;28;39285;-74
2024/01/05 06:04:34;;;;;;;3.70;0.30;;;8.50;99.90;;;;;;4991592;28;37871;-75
2024/01/05 06:07:00;;;;;;;1.40;0.53;;;8.50;99.90;;;;;;4978651;28;38784;-75
2024/01/05 06:09:27;;;;;;;0.53;0.33;;;8.50;99.90;;;;;;4968949;28;47521;-75
2024/01/05 06:11:53;;;;;;;1.40;0.43;;;8.40;99.90;;;;;;4989701;28;39541;-75
2024/01/05 06:14:19;;;;;;;2.83;0.47;;;8.40;99.90;;;;;;5004869;28;39583;-75
2024/01/05 06:16:45;;;;;;;2.73;0.40;;;8.30;99.90;;;;;;4960811;28;38862;-74
2024/01/05 06:19:12;;;;;;;1.97;0.50;;;8.20;99.90;;;;;;4985508;28;38990;-75
2024/01/05 06:21:38;;;;;;;5.47;0.50;;;8.20;99.90;;;;;;4973014;28;39633;-75
2024/01/05 06:24:04;;;;;;;2.00;0.43;;;8.10;99.90;;;;;;4974354;28;40371;-75
2024/01/05 06:26:31;;;;;;;3.03;0.47;;;8.00;99.90;;;;;;4993851;28;39154;-75
2024/01/05 06:28:57;;;;;;;2.47;0.60;;;8.00;99.90;;;;;;4967062;28;37932;-75
2024/01/05 06:31:24;;;;;;;3.63;0.70;;;8.00;99.90;;;;;;4987800;28;39647;-75
2024/01/05 06:33:50;;;;;;;2.87;0.60;;;7.90;99.90;;;;;;4981162;28;39040;-74
2024/01/05 06:36:16;;;;;;;3.20;0.80;;;7.90;99.90;;;;;;4972171;28;38450;-74
2024/01/05 06:38:42;;;;;;;2.47;0.70;;;7.90;99.90;;;;;;4981612;28;37009;-74
2024/01/05 06:41:08;;;;;;;2.60;0.53;;;8.00;99.90;;;;;;4969748;28;38279;-75
2024/01/05 06:43:35;;;;;;;2.73;0.67;;;8.00;99.90;;;;;;4967383;28;38974;-75
2024/01/05 06:46:01;;;;;;;1.83;0.47;;;8.00;99.90;;;;;;4966524;28;37707;-75
2024/01/05 06:48:27;;;;;;;1.97;0.60;;;8.00;99.90;;;;;;4970969;28;47292;-75
2024/01/05 06:50:53;;;;;;;1.90;0.53;;;8.00;99.90;;;;;;4983068;28;39763;-75
2024/01/05 06:53:19;;;;;;;3.33;0.63;;;8.00;99.90;;;;;;4981707;28;40203;-74
2024/01/05 06:55:45;;;;;;;1.93;0.63;;;8.00;99.90;;;;;;4983645;28;38063;-75
2024/01/05 06:58:12;;;;;;;2.00;0.87;;;7.90;99.90;;;;;;4967144;28;36370;-75
2024/01/05 07:00:38;;;;;;;2.80;0.70;;;7.80;99.90;;;;;;4975441;28;39115;-75
2024/01/05 07:03:04;;;;;;;2.27;0.60;;;7.70;99.90;;;;;;4967542;28;38827;-75
2024/01/05 07:05:30;;;;;;;4.33;0.60;;;7.60;99.90;;;;;;4986473;28;38509;-74
2024/01/05 07:07:56;;;;;;;4.43;0.80;;;7.60;99.90;;;;;;4980119;28;37502;-74
2024/01/05 07:10:23;;;;;;;4.03;0.80;;;7.50;99.90;;;;;;4961205;28;38419;-74
2024/01/05 07:12:49;;;;;;;4.97;1.27;;;7.50;99.90;;;;;;4969528;28;39320;-74
2024/01/05 07:15:16;;;;;;;4.07;0.97;;;7.50;99.90;;;;;;4962777;28;39131;-75
2024/01/05 07:17:45;;;;;;;2.87;0.80;;;7.40;99.90;;;;;;4961317;28;38814;-75
2024/01/05 07:20:11;;;;;;;3.73;0.90;;;7.40;99.90;;;;;;4984301;28;39250;-74
2024/01/05 07:22:38;;;;;;;5.53;0.80;;;7.40;99.90;;;;;;4983825;28;38600;-75
2024/01/05 07:25:05;;;;;;;2.50;0.83;;;7.30;99.90;;;;;;4962523;28;39759;-75
2024/01/05 07:27:32;;;;;;;5.83;1.10;;;7.40;99.90;;;;;;4988889;28;47621;-74
2024/01/05 07:29:58;;;;;;;2.73;0.90;;;7.30;99.90;;;;;;4974156;28;39645;-74
2024/01/05 07:32:24;;;;;;;4.93;1.00;;;7.30;99.90;;;;;;4982883;28;39302;-74
2024/01/05 07:34:50;;;;;;;2.00;1.30;;;7.30;99.90;;;;;;4965039;28;38976;-74
2024/01/05 07:37:18;;;;;;;1.57;1.40;;;7.30;99.90;;;;;;4985425;28;36669;-74
2024/01/05 07:39:44;;;;;;;2.70;1.30;;;7.20;99.90;;;;;;4981291;28;38718;-74
2024/01/05 07:42:10;;;;;;;4.40;1.53;;;7.20;99.90;;;;;;4972648;28;40495;-75
2024/01/05 07:44:36;;;;;;;4.80;1.47;;;7.20;99.90;;;;;;4979737;28;39685;-75
2024/01/05 07:47:02;;;;;;;3.87;1.30;;;7.20;99.90;;;;;;4973532;28;38425;-74
2024/01/05 07:49:28;;;;;;;4.13;1.40;;;7.20;99.90;;;;;;4978953;28;39410;-74
2024/01/05 07:51:55;;;;;;;4.77;1.43;;;7.20;99.90;;;;;;4989301;28;38834;-74
2024/01/05 07:54:21;;;;;;;5.93;2.13;;;7.10;99.90;;;;;;4981710;28;40043;-74
2024/01/05 07:56:47;;;;;;;4.40;2.87;;;7.10;99.90;;;;;;4971859;28;39173;-74
2024/01/05 07:59:15;;;;;;;5.43;2.87;;;7.10;99.90;;;;;;4973338;28;39335;-74
2024/01/05 08:01:41;;;;;;;3.77;2.93;;;7.10;99.90;;;;;;4981076;28;39599;-74
2024/01/05 08:04:07;;;;;;;6.53;3.67;;;7.10;99.90;;;;;;4979246;28;38309;-74
2024/01/05 08:06:33;;;;;;;9.53;4.67;;;7.10;99.90;;;;;;4968637;28;39058;-74
2024/01/05 08:09:00;;;;;;;9.10;5.23;;;7.10;99.90;;;;;;4955075;28;37277;-75
2024/01/05 08:11:26;;;;;;;9.60;5.33;;;7.20;99.90;;;;;;4983934;28;39820;-74
2024/01/05 08:13:52;;;;;;;9.73;5.57;;;7.20;99.90;;;;;;4962197;28;36796;-75
2024/01/05 08:16:18;;;;;;;9.97;6.27;;;7.20;99.90;;;;;;4965052;28;37860;-75
2024/01/05 08:18:45;;;;;;;6.60;5.93;;;7.20;99.90;;;;;;4989651;28;39068;-75
2024/01/05 08:21:11;;;;;;;9.43;7.03;;;7.20;99.90;;;;;;4969355;28;39673;-75
2024/01/05 08:23:37;;;;;;;13.63;7.50;;;7.20;99.90;;;;;;4970294;28;39364;-75
2024/01/05 08:26:04;;;;;;;9.10;7.27;;;7.20;99.90;;;;;;4967082;28;37105;-75
2024/01/05 08:28:30;;;;;;;10.67;7.50;;;7.20;99.90;;;;;;4972697;28;41834;-75
2024/01/05 08:30:57;;;;;;;14.93;7.87;;;7.20;99.90;;;;;;4986943;28;38101;-75
2024/01/05 08:33:23;;;;;;;13.50;8.30;;;7.30;99.90;;;;;;4962637;28;39837;-75
2024/01/05 08:35:49;;;;;;;10.37;8.00;;;7.30;99.90;;;;;;4970509;28;38903;-75
2024/01/05 08:38:15;;;;;;;11.53;9.10;;;7.30;99.90;;;;;;4981854;28;39103;-75
2024/01/05 08:40:41;;;;;;;9.87;8.67;;;7.30;99.90;;;;;;5003328;28;39372;-76
2024/01/05 08:43:09;;;;;;;10.87;8.63;;;7.30;99.90;;;;;;4965349;28;38382;-75
2024/01/05 08:45:36;;;;;;;11.70;9.30;;;7.30;99.90;;;;;;4967688;28;38765;-75
2024/01/05 08:48:02;;;;;;;13.27;8.93;;;7.30;99.90;;;;;;4967538;28;40492;-76
2024/01/05 08:50:28;;;;;;;16.30;8.87;;;7.30;99.90;;;;;;4990230;28;39280;-76
2024/01/05 08:52:54;;;;;;;14.30;8.27;;;7.40;99.90;;;;;;4998510;28;37387;-76
2024/01/05 08:55:20;;;;;;;13.77;7.80;;;7.40;99.90;;;;;;4961007;28;37762;-76
2024/01/05 08:57:49;;;;;;;11.77;8.20;;;7.40;99.90;;;;;;4954941;28;37551;-76
2024/01/05 09:00:18;;;;;;;9.23;7.43;;;7.50;99.90;;;;;;4954791;28;40023;-75
2024/01/05 09:02:44;;;;;;;10.80;8.17;;;7.50;99.90;;;;;;4972760;28;38687;-75
2024/01/05 09:05:10;;;;;;;11.63;7.37;;;7.50;99.90;;;;;;4950385;28;37301;-76
2024/01/05 09:07:37;;;;;;;10.73;7.13;;;7.50;99.90;;;;;;4976549;28;38631;-75
2024/01/05 09:10:03;;;;;;;10.07;6.87;;;7.50;99.90;;;;;;4985644;28;39531;-75
2024/01/05 09:12:29;;;;;;;11.43;7.27;;;7.60;99.90;;;;;;4971592;28;37774;-76
2024/01/05 09:14:55;;;;;;;11.37;8.10;;;7.60;99.90;;;;;;4981866;28;37060;-76
2024/01/05 09:17:21;;;;;;;10.10;6.83;;;7.60;99.90;;;;;;4957752;28;39239;-75
2024/01/05 09:19:47;;;;;;;12.03;7.70;;;7.60;99.90;;;;;;4972555;28;38631;-76
2024/01/05 09:22:14;;;;;;;11.30;7.20;;;7.60;99.90;;;;;;4978697;28;39393;-75
2024/01/05 09:24:40;;;;;;;10.20;7.00;;;7.70;99.90;;;;;;4963605;28;38504;-75
2024/01/05 09:27:06;;;;;;;11.40;6.77;;;7.70;99.90;;;;;;4956226;28;40419;-75
2024/01/05 09:29:33;;;;;;;11.93;7.27;;;7.70;99.90;;;;;;4970306;28;38889;-76
2024/01/05 09:32:00;;;;;;;9.83;7.00;;;7.70;99.90;;;;;;4980363;28;39956;-76
2024/01/05 09:34:26;;;;;;;7.00;6.00;;;7.80;99.90;;;;;;4989100;28;38278;-75
2024/01/05 09:36:53;;;;;;;7.97;6.13;;;7.70;99.90;;;;;;4985744;28;38483;-75
2024/01/05 09:39:20;;;;;;;6.00;4.93;;;7.80;99.90;;;;;;4965984;28;39793;-75
2024/01/05 09:41:46;;;;;;;5.90;5.20;;;7.80;99.90;;;;;;4996187;28;38458;-75
2024/01/05 09:44:13;;;;;;;6.93;4.30;;;7.80;99.90;;;;;;4964505;28;36973;-76
2024/01/05 09:46:40;;;;;;;7.40;5.20;;;7.90;99.90;;;;;;4998505;28;38743;-76
2024/01/05 09:49:08;;;;;;;6.27;3.83;;;7.90;99.90;;;;;;4980208;28;38707;-76
2024/01/05 09:51:35;;;;;;;4.43;3.60;;;7.90;99.90;;;;;;4982513;28;39192;-76
2024/01/05 09:54:02;;;;;;;3.33;3.03;;;7.90;99.90;;;;;;4976325;28;37072;-76
2024/01/05 09:56:29;;;;;;;7.20;3.20;;;7.90;99.90;;;;;;4985328;28;41134;-76
2024/01/05 09:58:55;;;;;;;3.73;2.40;;;8.00;99.90;;;;;;4972994;28;40546;-76
2024/01/05 10:01:30;;;;;;;2.80;2.13;;;8.00;99.90;;;;;;4966769;28;37111;-78
2024/01/05 10:04:01;;;;;;;4.03;1.90;;;8.10;99.90;;;;;;4974941;28;36911;-78
2024/01/05 10:06:28;;;;;;;3.43;1.93;;;8.10;99.90;;;;;;4974858;28;46731;-77
2024/01/05 10:08:57;;;;;;;5.67;1.97;;;8.10;99.90;;;;;;4976087;28;37827;-77
2024/01/05 10:11:34;;;;;;;4.80;1.50;;;8.10;99.90;;;;;;4971258;28;38784;-77
2024/01/05 10:14:03;;;;;;;6.80;1.83;;;8.10;99.90;;;;;;4984746;28;37225;-77
2024/01/05 10:16:39;;;;;;;6.20;2.27;;;8.10;99.90;;;;;;4988909;28;48922;-77
2024/01/05 10:19:25;;;;;;;3.07;1.60;;;8.00;99.90;;;;;;4974421;28;37769;-76
2024/01/05 10:21:51;;;;;;;5.17;1.10;;;8.00;99.90;;;;;;4974135;28;37302;-77
2024/01/05 10:24:26;;;;;;;6.67;1.17;;;7.90;99.90;;;;;;4980734;28;37784;-78
2024/01/05 10:27:14;;;;;;;4.57;1.30;;;7.90;99.90;;;;;;4962443;28;38401;-77
2024/01/05 10:29:54;;;;;;;6.90;1.83;;;8.00;99.90;;;;;;4985369;28;48726;-78
2024/01/05 10:32:21;;;;;;;1.80;0.97;;;8.00;99.90;;;;;;4954296;28;37555;-77
2024/01/05 10:34:49;;;;;;;6.77;1.20;;;8.10;99.90;;;;;;4977716;28;35804;-77
2024/01/05 10:37:17;;;;;;;3.60;1.30;;;8.20;99.90;;;;;;4978794;28;38967;-77
2024/01/05 10:39:48;;;;;;;1.73;1.10;;;8.30;99.90;;;;;;4962830;28;37694;-77
2024/01/05 10:42:21;;;;;;;4.40;1.20;;;8.40;99.90;;;;;;4967884;28;37343;-77
2024/01/05 10:44:55;;;;;;;3.57;1.67;;;8.50;99.90;;;;;;4961854;28;38908;-77
2024/01/05 10:47:23;;;;;;;3.87;1.17;;;8.50;99.90;;;;;;4986548;28;38932;-77
2024/01/05 10:49:51;;;;;;;6.93;1.43;;;8.50;99.90;;;;;;4979897;28;38939;-77
2024/01/05 10:52:19;;;;;;;2.50;1.30;;;8.40;99.90;;;;;;4967593;28;40253;-77
2024/01/05 10:54:47;;;;;;;3.63;1.73;;;8.50;99.90;;;;;;4967400;28;37565;-77
2024/01/05 10:57:15;;;;;;;3.80;1.80;;;8.50;99.90;;;;;;4979543;28;40058;-74
2024/01/05 10:59:49;;;;;;;2.83;2.07;;;8.50;99.90;;;;;;4983465;28;40011;-77
2024/01/05 11:02:24;;;;;;;6.10;2.50;;;8.50;99.90;;;;;;4982721;28;38625;-77
2024/01/05 11:05:01;;;;;;;3.70;2.30;;;8.50;99.90;;;;;;4957282;28;39048;-76
2024/01/05 11:07:30;;;;;;;6.00;3.10;;;8.50;99.90;;;;;;4962690;28;40781;-78
2024/01/05 11:10:07;;;;;;;5.73;2.93;;;8.50;99.90;;;;;;4962655;28;39329;-76
2024/01/05 11:12:52;;;;;;;4.63;2.43;;;8.50;99.90;;;;;;4985785;28;48678;-76
2024/01/05 11:15:46;;;;;;;4.70;3.13;;;8.40;99.90;;;;;;4980291;28;37940;-77
2024/01/05 11:18:42;;;;;;;10.00;3.33;;;8.40;99.90;;;;;;4986890;28;40532;-77
2024/01/05 11:21:13;;;;;;;3.73;2.60;;;8.40;99.90;;;;;;4960474;28;38240;-77
2024/01/05 11:23:41;;;;;;;3.27;2.80;;;8.30;99.90;;;;;;4968415;28;37571;-76
2024/01/05 11:26:34;;;;;;;3.33;2.30;;;8.30;99.90;;;;;;4987416;28;37467;-77
2024/01/05 11:29:04;;;;;;;5.83;2.63;;;8.30;99.90;;;;;;4985079;28;38710;-76
2024/01/05 11:31:51;;;;;;;6.03;2.80;;;8.30;99.90;;;;;;4972462;28;48639;-78
2024/01/05 11:34:34;;;;;;;3.20;2.50;;;8.20;99.90;;;;;;4974563;28;38119;-77
2024/01/05 11:37:01;;;;;;;6.70;3.33;;;8.20;99.90;;;;;;4988797;28;38187;-77
2024/01/05 11:39:44;;;;;;;3.43;3.13;;;8.20;99.90;;;;;;4971992;28;48226;-77
2024/01/05 11:42:33;;;;;;;4.60;2.90;;;8.20;99.90;;;;;;4994576;28;38811;-77
2024/01/05 11:45:03;;;;;;;4.03;3.27;;;8.20;99.90;;;;;;4988284;28;38629;-77
2024/01/05 11:47:46;;;;;;;6.20;3.00;;;8.20;99.90;;;;;;4979939;28;48502;-77
2024/01/05 11:50:34;;;;;;;2.47;2.30;;;8.20;99.90;;;;;;4975201;28;39743;-77
2024/01/05 11:53:10;;;;;;;3.73;2.57;;;8.20;99.90;;;;;;4985379;28;37720;-77
2024/01/05 11:55:47;;;;;;;2.50;2.23;;;8.20;99.90;;;;;;4954822;28;47234;-77
2024/01/05 11:58:22;;;;;;;4.93;2.20;;;8.20;99.90;;;;;;4956801;28;37706;-78
2024/01/05 12:00:49;;;;;;;4.17;2.30;;;8.30;99.90;;;;;;4964818;28;39680;-77
2024/01/05 12:03:17;;;;;;;5.70;2.17;;;8.30;99.90;;;;;;4966681;28;39917;-78
2024/01/05 12:05:43;;;;;;;2.30;2.10;;;8.30;99.90;;;;;;4985308;28;39111;-77
2024/01/05 12:08:11;;;;;;;4.37;2.17;;;8.30;99.90;;;;;;4968479;28;36150;-77
2024/01/05 12:10:39;;;;;;;4.40;2.50;;;8.40;99.90;;;;;;4968705;28;39653;-77
2024/01/05 12:13:06;;;;;;;1.97;1.83;;;8.40;99.90;;;;;;4962790;28;40147;-77
2024/01/05 12:15:33;;;;;;;4.43;2.40;;;8.40;99.90;;;;;;4972341;28;39073;-77
2024/01/05 12:18:10;;;;;;;3.97;1.93;;;8.40;99.90;;;;;;4971043;28;37096;-76
2024/01/05 12:20:37;;;;;;;4.07;1.60;;;8.40;99.90;;;;;;4984883;28;48473;-78
2024/01/05 12:23:03;;;;;;;2.00;1.70;;;8.40;99.90;;;;;;4960586;28;37525;-77
2024/01/05 12:25:30;;;;;;;3.53;1.80;;;8.50;99.90;;;;;;4978718;28;38158;-77
2024/01/05 12:27:58;;;;;;;2.80;1.60;;;8.50;99.90;;;;;;4985197;28;38376;-77
2024/01/05 12:30:24;;;;;;;2.67;1.77;;;8.50;99.90;;;;;;4994541;28;39818;-77
2024/01/05 12:32:52;;;;;;;5.10;1.80;;;8.50;99.90;;;;;;4964983;28;39620;-77
2024/01/05 12:35:18;;;;;;;5.97;1.90;;;8.60;99.90;;;;;;4985545;28;39294;-78
2024/01/05 12:37:55;;;;;;;2.17;1.90;;;8.60;99.90;;;;;;4973779;28;38205;-77
2024/01/05 12:40:26;;;;;;;3.30;1.40;;;8.60;99.90;;;;;;4994202;28;39311;-76
2024/01/05 12:42:53;;;;;;;3.67;1.47;;;8.60;99.90;;;;;;4972492;28;37712;-76
2024/01/05 12:45:22;;;;;;;4.47;1.40;;;8.50;99.90;;;;;;4979660;28;38079;-76
2024/01/05 12:47:51;;;;;;;4.47;1.50;;;8.50;99.90;;;;;;4968042;28;36675;-76
2024/01/05 12:50:25;;;;;;;3.17;1.40;;;8.50;99.90;;;;;;4988989;28;38612;-76
2024/01/05 12:52:51;;;;;;;2.13;1.50;;;8.50;99.90;;;;;;4977306;28;38778;-76
2024/01/05 12:55:31;;;;;;;4.97;1.40;;;8.50;99.90;;;;;;4980141;28;38216;-76
2024/01/05 12:58:04;;;;;;;5.23;2.10;;;8.40;99.90;;;;;;4983457;28;38280;-76